Lockwood, New York
Current Conditions -  °F | °C
As of 7:08 AM on Monday 26 Jan 2015 (Local Time) from KELM Reporting Station
Light Snow Light Snow  
Wind Chill:   Ceiling: 3500
Heat Index: 13°   Visibility: 3mi
Dew Point:   Wind: 7mph
Humidity: 71%   Direction: 70°ENE
Pressure: 29.92"   Gusts: NA
Location:  42.09°N, 76.55°W
Report Text: KELM 261208Z 07006KT 3SM -SN BKN035 OVC045 M11/M15 A2992 RMK AO2 P0000 T11061150
Loading
Personal Weather Stations






























Interactive Weather Map New forecast layout! Learn more

10-Day Weather Forecast

Advertisements
Track Severe Weather on mobile